Time;durP1;ratioP1;P1;durP2;ratioP2;P2;SDS_P1;SDS_P2;PMS_P1;PMS_P2;Temp;Humidity;BMP_temperature;BMP_pressure;BME280_temperature;BME280_humidity;BME280_pressure;Samples;Min_cycle;Max_cycle;Signal;HPM_P1;HPM_P2
2022/11/02 00:00:40;;;;;;;0.10;0.10;;;;;;;;;;4953834;28;20615;-91
2022/11/02 00:03:06;;;;;;;0.10;0.10;;;;;;;;;;4953106;29;20418;-91
2022/11/02 00:05:33;;;;;;;0.10;0.10;;;;;;;;;;4952840;29;20418;-87
2022/11/02 00:07:59;;;;;;;0.32;0.32;;;;;;;;;;4952774;29;20409;-89
2022/11/02 00:10:25;;;;;;;0.20;0.20;;;;;;;;;;4952497;28;20464;-89
2022/11/02 00:12:51;;;;;;;0.10;0.10;;;;;;;;;;4952709;29;20577;-90
2022/11/02 00:15:17;;;;;;;0.10;0.10;;;;;;;;;;4968624;28;20417;-90
2022/11/02 00:17:46;;;;;;;0.20;0.20;;;;;;;;;;4953332;28;20442;-88
2022/11/02 00:20:13;;;;;;;0.85;0.50;;;;;;;;;;4952428;28;20440;-87
2022/11/02 00:22:40;;;;;;;0.10;0.10;;;;;;;;;;4966643;28;20916;-88
2022/11/02 00:25:07;;;;;;;0.20;0.20;;;;;;;;;;4951471;29;20410;-88
2022/11/02 00:27:34;;;;;;;0.10;0.10;;;;;;;;;;4968499;28;20418;-89
2022/11/02 00:30:00;;;;;;;0.10;0.10;;;;;;;;;;4967775;28;20575;-86
2022/11/02 00:32:27;;;;;;;0.00;0.00;;;;;;;;;;4952332;28;20437;-87
2022/11/02 00:34:53;;;;;;;0.10;0.10;;;;;;;;;;4967942;28;20412;-87
2022/11/02 00:37:19;;;;;;;0.00;0.00;;;;;;;;;;4951881;29;20418;-88
2022/11/02 00:39:45;;;;;;;0.10;0.10;;;;;;;;;;4951792;29;20417;-85
2022/11/02 00:42:11;;;;;;;0.30;0.30;;;;;;;;;;4951892;29;20512;-88
2022/11/02 00:44:37;;;;;;;2.30;0.60;;;;;;;;;;4952327;29;20417;-90
2022/11/02 00:47:03;;;;;;;0.10;0.10;;;;;;;;;;4952161;29;20417;-89
2022/11/02 00:49:29;;;;;;;0.10;0.10;;;;;;;;;;4952038;29;20895;-90
2022/11/02 00:51:55;;;;;;;0.00;0.00;;;;;;;;;;4952429;29;20440;-87
2022/11/02 00:54:21;;;;;;;0.10;0.10;;;;;;;;;;4951361;28;20591;-88
2022/11/02 00:56:47;;;;;;;0.05;0.05;;;;;;;;;;4951711;29;20430;-88
2022/11/02 00:59:14;;;;;;;0.10;0.10;;;;;;;;;;4952833;29;20429;-89
2022/11/02 01:01:45;;;;;;;0.00;0.00;;;;;;;;;;4951225;29;20422;-89
2022/11/02 01:04:12;;;;;;;0.10;0.10;;;;;;;;;;4952790;28;20413;-89
2022/11/02 01:06:38;;;;;;;0.10;0.10;;;;;;;;;;4952730;28;20414;-89
2022/11/02 01:09:04;;;;;;;0.00;0.00;;;;;;;;;;4950739;29;20420;-89
2022/11/02 01:11:30;;;;;;;0.10;0.10;;;;;;;;;;4952245;28;20429;-88
2022/11/02 01:13:56;;;;;;;0.20;0.20;;;;;;;;;;4966816;28;20568;-88
2022/11/02 01:16:22;;;;;;;0.10;0.10;;;;;;;;;;4952287;29;20413;-89
2022/11/02 01:18:51;;;;;;;0.10;0.10;;;;;;;;;;4967131;28;20432;-85
2022/11/02 01:21:17;;;;;;;0.10;0.10;;;;;;;;;;4951063;29;20429;-90
2022/11/02 01:23:43;;;;;;;0.00;0.00;;;;;;;;;;4951498;28;20422;-87
2022/11/02 01:26:10;;;;;;;0.10;0.10;;;;;;;;;;4952171;28;20410;-89
2022/11/02 01:28:38;;;;;;;0.00;0.00;;;;;;;;;;4952732;28;20437;-89
2022/11/02 01:31:04;;;;;;;0.40;0.40;;;;;;;;;;4949862;29;20520;-88
2022/11/02 01:33:30;;;;;;;0.10;0.10;;;;;;;;;;4951161;29;20497;-86
2022/11/02 01:35:56;;;;;;;0.10;0.10;;;;;;;;;;4952386;28;20448;-85
2022/11/02 01:38:22;;;;;;;0.20;0.20;;;;;;;;;;4966892;28;20492;-89
2022/11/02 01:40:48;;;;;;;0.10;0.10;;;;;;;;;;4967098;28;20418;-89
2022/11/02 01:43:18;;;;;;;0.00;0.00;;;;;;;;;;4951586;28;20813;-88
2022/11/02 01:45:45;;;;;;;0.10;0.10;;;;;;;;;;4951241;29;20414;-89
2022/11/02 01:48:11;;;;;;;0.00;0.00;;;;;;;;;;4950775;29;20502;-90
2022/11/02 01:50:37;;;;;;;0.10;0.10;;;;;;;;;;4949991;28;20492;-91
2022/11/02 01:53:03;;;;;;;0.10;0.10;;;;;;;;;;4950738;29;20416;-85
2022/11/02 01:55:29;;;;;;;0.10;0.10;;;;;;;;;;4952307;29;20417;-85
2022/11/02 01:57:58;;;;;;;0.10;0.10;;;;;;;;;;4951743;28;20413;-86
2022/11/02 02:00:24;;;;;;;0.10;0.10;;;;;;;;;;4951057;28;20758;-87
2022/11/02 02:03:10;;;;;;;0.05;0.05;;;;;;;;;;4950437;28;20452;-83
2022/11/02 02:05:41;;;;;;;0.10;0.10;;;;;;;;;;4966691;28;20422;-86
2022/11/02 02:08:08;;;;;;;0.20;0.20;;;;;;;;;;4966254;28;20425;-89
2022/11/02 02:10:35;;;;;;;0.00;0.00;;;;;;;;;;4951264;28;20488;-89
2022/11/02 02:13:01;;;;;;;0.00;0.00;;;;;;;;;;4951165;29;20406;-87
2022/11/02 02:15:38;;;;;;;0.10;0.10;;;;;;;;;;4966929;28;20417;-88
2022/11/02 02:18:09;;;;;;;0.00;0.00;;;;;;;;;;4966819;28;20421;-89
2022/11/02 02:20:39;;;;;;;0.05;0.05;;;;;;;;;;4951292;29;20496;-90
2022/11/02 02:23:24;;;;;;;0.00;0.00;;;;;;;;;;4950311;29;20428;-89
2022/11/02 02:25:58;;;;;;;0.00;0.00;;;;;;;;;;4955323;28;20493;-85
2022/11/02 02:28:35;;;;;;;0.00;0.00;;;;;;;;;;4971932;28;20429;-87
2022/11/02 02:31:10;;;;;;;0.00;0.00;;;;;;;;;;4956367;28;20465;-89
2022/11/02 02:33:42;;;;;;;0.10;0.10;;;;;;;;;;4971604;28;20422;-89
2022/11/02 02:36:40;;;;;;;0.10;0.10;;;;;;;;;;4955331;29;20421;-91
2022/11/02 02:39:09;;;;;;;0.10;0.10;;;;;;;;;;4965053;28;20463;-90
2022/11/02 02:41:44;;;;;;;0.00;0.00;;;;;;;;;;4955629;29;20418;-89
2022/11/02 02:44:12;;;;;;;0.00;0.00;;;;;;;;;;4954922;29;20422;-89
2022/11/02 02:46:46;;;;;;;0.08;0.08;;;;;;;;;;4954317;29;20413;-87
2022/11/02 02:49:15;;;;;;;0.10;0.10;;;;;;;;;;4954603;28;20402;-88
2022/11/02 02:51:42;;;;;;;0.20;0.20;;;;;;;;;;4970246;28;20434;-84
2022/11/02 02:54:10;;;;;;;0.00;0.00;;;;;;;;;;4969801;28;20500;-86
2022/11/02 02:56:41;;;;;;;0.00;0.00;;;;;;;;;;4953879;29;20749;-87
2022/11/02 02:59:12;;;;;;;0.00;0.00;;;;;;;;;;4969093;28;20426;-89
2022/11/02 03:01:43;;;;;;;0.08;0.08;;;;;;;;;;4970327;28;20417;-89
2022/11/02 03:04:11;;;;;;;0.00;0.00;;;;;;;;;;4954472;28;20405;-88
2022/11/02 03:06:38;;;;;;;0.03;0.03;;;;;;;;;;4970232;28;20422;-89
2022/11/02 03:09:15;;;;;;;0.00;0.00;;;;;;;;;;4954230;28;20437;-86
2022/11/02 03:11:47;;;;;;;0.00;0.00;;;;;;;;;;4969842;28;20477;-89
2022/11/02 03:14:33;;;;;;;0.30;0.30;;;;;;;;;;4954845;29;20472;-90
2022/11/02 03:17:02;;;;;;;0.00;0.00;;;;;;;;;;4954732;29;20409;-89
2022/11/02 03:19:35;;;;;;;0.00;0.00;;;;;;;;;;4956275;29;20418;-89
2022/11/02 03:22:04;;;;;;;0.00;0.00;;;;;;;;;;4954153;29;20548;-87
2022/11/02 03:24:33;;;;;;;0.10;0.10;;;;;;;;;;4955200;29;20830;-88
2022/11/02 03:27:04;;;;;;;0.00;0.00;;;;;;;;;;4954421;29;20458;-89
2022/11/02 03:29:42;;;;;;;0.00;0.00;;;;;;;;;;4970342;28;20742;-87
2022/11/02 03:32:24;;;;;;;0.00;0.00;;;;;;;;;;4954813;28;20824;-88
2022/11/02 03:34:56;;;;;;;0.00;0.00;;;;;;;;;;4970633;28;20897;-90
2022/11/02 03:37:26;;;;;;;0.10;0.10;;;;;;;;;;4953601;28;20413;-89
2022/11/02 03:39:58;;;;;;;0.10;0.10;;;;;;;;;;4954663;29;20413;-88
2022/11/02 03:42:26;;;;;;;0.10;0.10;;;;;;;;;;4970187;28;20426;-90
2022/11/02 03:45:12;;;;;;;0.10;0.10;;;;;;;;;;4954463;28;20919;-89
2022/11/02 03:47:39;;;;;;;0.10;0.10;;;;;;;;;;4953787;28;20457;-88
2022/11/02 03:50:07;;;;;;;0.08;0.08;;;;;;;;;;4953012;28;20501;-91
2022/11/02 03:52:35;;;;;;;0.10;0.10;;;;;;;;;;4969005;28;20465;-89
2022/11/02 03:55:06;;;;;;;0.10;0.10;;;;;;;;;;4953930;28;20417;-84
2022/11/02 03:57:34;;;;;;;0.40;0.40;;;;;;;;;;4953727;28;20425;-89
2022/11/02 04:00:11;;;;;;;0.00;0.00;;;;;;;;;;4968813;28;20432;-83
2022/11/02 04:02:38;;;;;;;2.40;1.60;;;;;;;;;;4952602;28;20457;-88
2022/11/02 04:05:04;;;;;;;0.10;0.10;;;;;;;;;;4968560;28;20469;-86
2022/11/02 04:08:19;;;;;;;0.03;0.03;;;;;;;;;;4969065;28;20460;-87
2022/11/02 04:10:19;;;;;;;0.10;0.10;;;;;;;;;;4951525;29;20913;-87
2022/11/02 04:15:29;;;;;;;0.05;0.05;;;;;;;;;;4968507;28;20418;-86
2022/11/02 04:20:40;;;;;;;0.10;0.10;;;;;;;;;;4968437;28;20963;-88
2022/11/02 04:25:53;;;;;;;0.10;0.10;;;;;;;;;;4968617;28;20417;-87
2022/11/02 04:28:20;;;;;;;0.60;0.60;;;;;;;;;;4968190;28;20417;-90
2022/11/02 04:30:46;;;;;;;0.00;0.00;;;;;;;;;;4967930;28;20465;-85
2022/11/02 04:35:59;;;;;;;0.08;0.08;;;;;;;;;;4968042;28;20453;-88
2022/11/02 04:38:40;;;;;;;0.00;0.00;;;;;;;;;;4953336;29;20511;-88
2022/11/02 04:43:55;;;;;;;0.10;0.10;;;;;;;;;;4968190;28;20913;-89
2022/11/02 04:46:22;;;;;;;0.10;0.10;;;;;;;;;;4952684;28;20414;-90
2022/11/02 04:48:48;;;;;;;0.10;0.10;;;;;;;;;;4952235;28;20421;-86
2022/11/02 04:51:14;;;;;;;0.40;0.40;;;;;;;;;;4967780;28;20434;-89
2022/11/02 04:53:40;;;;;;;0.10;0.10;;;;;;;;;;4968568;28;20429;-89
2022/11/02 04:56:07;;;;;;;0.10;0.10;;;;;;;;;;4967379;28;20418;-90
2022/11/02 04:58:33;;;;;;;0.00;0.00;;;;;;;;;;4952345;29;20916;-89
2022/11/02 05:01:04;;;;;;;0.10;0.10;;;;;;;;;;4953295;29;20410;-89
2022/11/02 05:03:31;;;;;;;0.10;0.10;;;;;;;;;;4969248;28;20451;-86
2022/11/02 05:05:57;;;;;;;1.80;0.60;;;;;;;;;;4969204;28;20432;-90
2022/11/02 05:08:23;;;;;;;0.00;0.00;;;;;;;;;;4953480;29;20568;-89
2022/11/02 05:10:49;;;;;;;0.10;0.10;;;;;;;;;;4969636;28;20452;-89
2022/11/02 05:13:15;;;;;;;5.50;0.50;;;;;;;;;;4961565;29;20419;-84
2022/11/02 05:15:41;;;;;;;0.10;0.10;;;;;;;;;;4969585;29;20429;-87
2022/11/02 05:18:07;;;;;;;0.00;0.00;;;;;;;;;;4972278;29;20416;-81
2022/11/02 05:20:33;;;;;;;0.08;0.08;;;;;;;;;;4986464;28;20476;-85
2022/11/02 05:22:59;;;;;;;0.10;0.10;;;;;;;;;;4987224;28;20457;-86
2022/11/02 05:25:25;;;;;;;0.10;0.10;;;;;;;;;;4969539;29;20430;-82
2022/11/02 05:27:51;;;;;;;0.05;0.05;;;;;;;;;;4969554;29;20394;-83
2022/11/02 05:30:17;;;;;;;0.10;0.10;;;;;;;;;;4969897;29;20422;-86
2022/11/02 05:32:43;;;;;;;0.10;0.10;;;;;;;;;;4971331;29;20430;-86
2022/11/02 05:35:09;;;;;;;0.10;0.10;;;;;;;;;;4971795;29;20444;-81
2022/11/02 05:37:35;;;;;;;0.20;0.20;;;;;;;;;;4986885;28;20410;-84
2022/11/02 05:40:01;;;;;;;0.10;0.10;;;;;;;;;;4966831;29;20453;-86
2022/11/02 05:42:28;;;;;;;0.10;0.10;;;;;;;;;;4952805;29;20436;-84
2022/11/02 05:44:54;;;;;;;0.00;0.00;;;;;;;;;;4969182;28;20897;-87
2022/11/02 05:47:20;;;;;;;0.10;0.10;;;;;;;;;;4951479;29;20462;-87
2022/11/02 05:49:46;;;;;;;0.30;0.30;;;;;;;;;;4967104;28;20501;-88
2022/11/02 05:52:12;;;;;;;0.10;0.10;;;;;;;;;;4951342;29;20917;-86
2022/11/02 05:54:38;;;;;;;0.30;0.30;;;;;;;;;;4967665;28;20750;-85
2022/11/02 05:57:04;;;;;;;0.10;0.10;;;;;;;;;;4966400;28;20920;-85
2022/11/02 05:59:30;;;;;;;0.30;0.30;;;;;;;;;;4951711;28;20952;-86
2022/11/02 06:01:56;;;;;;;0.10;0.10;;;;;;;;;;4971160;28;20417;-85
2022/11/02 06:04:22;;;;;;;0.30;0.30;;;;;;;;;;4955054;29;20426;-84
2022/11/02 06:06:48;;;;;;;0.00;0.00;;;;;;;;;;4955971;29;20418;-85
2022/11/02 06:09:14;;;;;;;0.05;0.05;;;;;;;;;;4956396;29;20410;-86
2022/11/02 06:11:40;;;;;;;0.00;0.00;;;;;;;;;;4971018;28;20442;-90
2022/11/02 06:14:06;;;;;;;0.40;0.40;;;;;;;;;;4956600;29;20710;-88
2022/11/02 06:16:32;;;;;;;0.00;0.00;;;;;;;;;;4955388;29;20484;-87
2022/11/02 06:18:58;;;;;;;0.10;0.10;;;;;;;;;;4955704;29;20402;-86
2022/11/02 06:21:24;;;;;;;0.08;0.08;;;;;;;;;;4952167;29;20418;-84
2022/11/02 06:23:51;;;;;;;0.10;0.10;;;;;;;;;;4954512;28;20476;-86
2022/11/02 06:26:17;;;;;;;0.10;0.10;;;;;;;;;;4970048;28;20479;-86
2022/11/02 06:28:43;;;;;;;0.10;0.10;;;;;;;;;;4955563;29;20420;-86
2022/11/02 06:31:09;;;;;;;0.00;0.00;;;;;;;;;;4955097;29;20433;-86
2022/11/02 06:33:35;;;;;;;0.10;0.10;;;;;;;;;;4971085;28;20406;-88
2022/11/02 06:36:01;;;;;;;0.00;0.00;;;;;;;;;;4955710;28;20421;-86
2022/11/02 06:38:27;;;;;;;0.10;0.10;;;;;;;;;;4970528;28;20418;-87
2022/11/02 06:40:57;;;;;;;0.00;0.00;;;;;;;;;;4954644;28;20420;-87
2022/11/02 06:43:23;;;;;;;0.00;0.00;;;;;;;;;;4968766;28;20427;-86
2022/11/02 06:45:50;;;;;;;0.10;0.10;;;;;;;;;;4955675;28;20418;-88
2022/11/02 06:48:16;;;;;;;0.10;0.10;;;;;;;;;;4955114;28;20414;-87
2022/11/02 06:50:42;;;;;;;0.10;0.10;;;;;;;;;;4970829;28;20417;-84
2022/11/02 06:53:08;;;;;;;0.00;0.00;;;;;;;;;;4971433;28;20414;-87
2022/11/02 06:55:34;;;;;;;0.10;0.10;;;;;;;;;;4970838;28;20421;-86
2022/11/02 06:58:00;;;;;;;0.00;0.00;;;;;;;;;;4954538;29;20422;-86
2022/11/02 07:00:26;;;;;;;0.10;0.10;;;;;;;;;;4954524;29;20457;-86
2022/11/02 07:03:03;;;;;;;0.20;0.20;;;;;;;;;;4971077;28;20425;-86
2022/11/02 07:05:29;;;;;;;0.08;0.08;;;;;;;;;;4971123;28;20460;-86
2022/11/02 07:07:55;;;;;;;0.00;0.00;;;;;;;;;;4971059;28;20433;-87
2022/11/02 07:10:21;;;;;;;0.00;0.00;;;;;;;;;;4970939;28;20500;-87
2022/11/02 07:12:50;;;;;;;0.10;0.10;;;;;;;;;;4970705;28;20437;-87
2022/11/02 07:15:16;;;;;;;0.00;0.00;;;;;;;;;;4954072;29;20410;-85
2022/11/02 07:17:42;;;;;;;0.00;0.00;;;;;;;;;;4955279;29;20410;-88
2022/11/02 07:20:09;;;;;;;0.10;0.10;;;;;;;;;;4955109;28;20413;-87
2022/11/02 07:22:35;;;;;;;0.10;0.10;;;;;;;;;;4954131;29;20421;-87
2022/11/02 07:25:01;;;;;;;0.05;0.05;;;;;;;;;;4954258;29;20418;-87
2022/11/02 07:27:28;;;;;;;0.10;0.10;;;;;;;;;;4970187;28;20761;-87
2022/11/02 07:29:54;;;;;;;0.00;0.00;;;;;;;;;;4954235;28;20919;-83
2022/11/02 07:32:20;;;;;;;0.10;0.10;;;;;;;;;;4953352;28;20430;-81
2022/11/02 07:34:46;;;;;;;0.20;0.20;;;;;;;;;;4955108;29;20418;-86
2022/11/02 07:37:12;;;;;;;0.40;0.40;;;;;;;;;;4954918;28;20474;-88
2022/11/02 07:39:38;;;;;;;0.10;0.10;;;;;;;;;;4953822;28;20421;-87
2022/11/02 07:42:06;;;;;;;0.00;0.00;;;;;;;;;;4970260;28;20520;-90
2022/11/02 07:44:32;;;;;;;0.10;0.10;;;;;;;;;;4954160;28;20425;-87
2022/11/02 07:46:58;;;;;;;0.10;0.10;;;;;;;;;;4969432;28;20446;-82
2022/11/02 07:49:24;;;;;;;0.00;0.00;;;;;;;;;;4954413;29;20410;-87
2022/11/02 07:51:50;;;;;;;0.10;0.10;;;;;;;;;;4953701;28;20483;-88
2022/11/02 07:54:16;;;;;;;0.00;0.00;;;;;;;;;;4970012;28;20902;-86
2022/11/02 07:56:44;;;;;;;0.10;0.10;;;;;;;;;;4953173;29;20471;-87
2022/11/02 07:59:11;;;;;;;0.10;0.10;;;;;;;;;;4954229;29;20417;-87
2022/11/02 08:01:38;;;;;;;0.10;0.10;;;;;;;;;;4968641;28;20433;-87
2022/11/02 08:04:04;;;;;;;0.10;0.10;;;;;;;;;;4953085;29;20414;-87
2022/11/02 08:06:30;;;;;;;0.10;0.10;;;;;;;;;;4952886;29;20414;-88
2022/11/02 08:08:56;;;;;;;0.00;0.00;;;;;;;;;;4970386;28;20433;-88
2022/11/02 08:11:22;;;;;;;0.10;0.10;;;;;;;;;;4969158;28;20811;-88
2022/11/02 08:13:48;;;;;;;0.10;0.10;;;;;;;;;;4953535;29;20500;-92
2022/11/02 08:16:14;;;;;;;0.00;0.00;;;;;;;;;;4955093;29;20418;-94
2022/11/02 08:18:40;;;;;;;0.10;0.10;;;;;;;;;;4953885;28;20418;-92
2022/11/02 08:21:06;;;;;;;0.00;0.00;;;;;;;;;;4954192;29;20425;-92
2022/11/02 08:23:33;;;;;;;0.00;0.00;;;;;;;;;;4953635;28;20477;-90
2022/11/02 08:25:59;;;;;;;0.10;0.10;;;;;;;;;;4951991;28;20482;-86
2022/11/02 08:28:34;;;;;;;0.10;0.10;;;;;;;;;;4952131;28;20464;-91
2022/11/02 08:31:01;;;;;;;0.00;0.00;;;;;;;;;;4969009;28;20462;-89
2022/11/02 08:33:27;;;;;;;2.10;0.40;;;;;;;;;;4952002;29;20768;-88
2022/11/02 08:35:53;;;;;;;0.10;0.10;;;;;;;;;;4952681;29;20743;-86
2022/11/02 08:38:22;;;;;;;0.10;0.10;;;;;;;;;;4952379;29;20512;-91
2022/11/02 08:40:48;;;;;;;0.10;0.10;;;;;;;;;;4969212;28;20418;-90
2022/11/02 08:43:15;;;;;;;0.20;0.20;;;;;;;;;;4968782;28;20401;-90
2022/11/02 08:45:42;;;;;;;0.20;0.20;;;;;;;;;;4953629;28;20420;-84
2022/11/02 08:48:08;;;;;;;0.50;0.50;;;;;;;;;;4953700;28;20445;-91
2022/11/02 08:50:35;;;;;;;0.10;0.10;;;;;;;;;;4952126;29;20758;-90
2022/11/02 08:53:01;;;;;;;0.00;0.00;;;;;;;;;;4968436;28;20436;-90
2022/11/02 08:55:27;;;;;;;0.20;0.20;;;;;;;;;;4952858;28;20533;-88
2022/11/02 08:57:54;;;;;;;0.10;0.10;;;;;;;;;;4969287;28;20433;-86
2022/11/02 09:00:23;;;;;;;0.00;0.00;;;;;;;;;;4969702;28;20413;-86
2022/11/02 09:03:02;;;;;;;0.10;0.10;;;;;;;;;;4968847;28;20429;-88
2022/11/02 09:05:29;;;;;;;0.50;0.50;;;;;;;;;;4967467;28;20462;-87
2022/11/02 09:07:57;;;;;;;0.10;0.10;;;;;;;;;;4953329;28;20858;-88
2022/11/02 09:10:23;;;;;;;0.10;0.10;;;;;;;;;;4952023;29;20916;-88
2022/11/02 09:12:49;;;;;;;0.10;0.10;;;;;;;;;;4952203;29;20455;-87
2022/11/02 09:15:15;;;;;;;0.10;0.10;;;;;;;;;;4951673;29;20826;-88
2022/11/02 09:17:41;;;;;;;0.10;0.10;;;;;;;;;;4968247;28;20881;-87
2022/11/02 09:20:07;;;;;;;0.10;0.10;;;;;;;;;;4953146;29;20409;-87
2022/11/02 09:22:33;;;;;;;0.10;0.10;;;;;;;;;;4951938;29;20421;-87
2022/11/02 09:24:59;;;;;;;729.95;662.25;;;;;;;;;;4952800;29;20429;-87
2022/11/02 09:27:25;;;;;;;716.42;650.47;;;;;;;;;;4967967;28;20454;-86
2022/11/02 09:29:51;;;;;;;706.20;641.42;;;;;;;;;;4968341;28;20915;-86
2022/11/02 09:32:17;;;;;;;751.33;684.85;;;;;;;;;;4952809;28;20473;-87
2022/11/02 09:34:46;;;;;;;776.72;708.78;;;;;;;;;;4968385;28;20449;-86
2022/11/02 09:37:12;;;;;;;773.22;705.05;;;;;;;;;;4951868;29;20410;-88
2022/11/02 09:39:38;;;;;;;781.25;713.05;;;;;;;;;;4968272;28;20414;-91
2022/11/02 09:42:12;;;;;;;714.58;649.65;;;;;;;;;;4969022;28;20421;-87
2022/11/02 09:44:58;;;;;;;708.30;644.90;;;;;;;;;;4967264;28;25104;-86
2022/11/02 09:47:26;;;;;;;641.05;583.03;;;;;;;;;;4952688;29;25118;-89
2022/11/02 09:49:53;;;;;;;0.08;0.08;;;;;;;;;;4967545;28;20406;-89
2022/11/02 09:52:34;;;;;;;0.60;0.60;;;;;;;;;;4952102;28;20500;-87
2022/11/02 09:55:02;;;;;;;710.92;647.17;;;;;;;;;;4952996;28;20437;-89
2022/11/02 09:57:31;;;;;;;0.40;0.40;;;;;;;;;;4968950;28;20429;-90
2022/11/02 09:59:57;;;;;;;0.00;0.00;;;;;;;;;;4953324;28;20418;-88
2022/11/02 10:02:26;;;;;;;0.70;0.70;;;;;;;;;;4969024;28;20429;-93
2022/11/02 10:05:11;;;;;;;88.47;80.53;;;;;;;;;;4953263;29;20418;-91
2022/11/02 10:07:37;;;;;;;0.10;0.10;;;;;;;;;;4968754;28;20425;-88
2022/11/02 10:10:09;;;;;;;0.10;0.10;;;;;;;;;;4951847;29;20410;-88
2022/11/02 10:12:54;;;;;;;225.25;204.85;;;;;;;;;;4968304;28;20477;-91
2022/11/02 10:15:22;;;;;;;0.20;0.20;;;;;;;;;;4967262;28;20434;-88
2022/11/02 10:17:52;;;;;;;0.10;0.10;;;;;;;;;;4952781;28;20537;-91
2022/11/02 10:20:26;;;;;;;0.10;0.10;;;;;;;;;;4951226;29;20424;-91
2022/11/02 10:22:54;;;;;;;1.50;1.30;;;;;;;;;;4967159;28;20425;-85
2022/11/02 10:25:20;;;;;;;0.30;0.30;;;;;;;;;;4953548;28;20877;-90
2022/11/02 10:27:49;;;;;;;0.30;0.30;;;;;;;;;;4968376;28;20417;-87
2022/11/02 10:30:17;;;;;;;0.25;0.25;;;;;;;;;;4967369;28;20921;-90
2022/11/02 10:32:44;;;;;;;0.20;0.20;;;;;;;;;;4951147;28;20480;-89
2022/11/02 10:35:29;;;;;;;0.10;0.10;;;;;;;;;;4950700;28;20509;-87
2022/11/02 10:38:03;;;;;;;0.10;0.10;;;;;;;;;;4951951;29;20505;-88
2022/11/02 10:40:47;;;;;;;0.00;0.00;;;;;;;;;;4968059;28;20486;-90
2022/11/02 10:43:17;;;;;;;0.10;0.10;;;;;;;;;;4951671;29;20417;-91
2022/11/02 10:45:56;;;;;;;0.20;0.20;;;;;;;;;;4967832;28;20460;-89
2022/11/02 10:48:34;;;;;;;0.10;0.10;;;;;;;;;;4954737;29;20442;-90
2022/11/02 10:51:11;;;;;;;0.20;0.20;;;;;;;;;;4954803;29;20725;-90
2022/11/02 10:53:48;;;;;;;0.10;0.10;;;;;;;;;;4954760;29;20429;-88
2022/11/02 10:56:14;;;;;;;7.40;0.70;;;;;;;;;;4971485;28;20418;-91
2022/11/02 10:58:44;;;;;;;0.10;0.10;;;;;;;;;;4955317;29;20497;-88
2022/11/02 11:01:11;;;;;;;2.00;0.60;;;;;;;;;;4969988;28;20421;-88
2022/11/02 11:03:56;;;;;;;0.30;0.30;;;;;;;;;;4951867;29;20963;-87
2022/11/02 11:06:23;;;;;;;0.10;0.10;;;;;;;;;;4955196;29;20849;-82
2022/11/02 11:08:50;;;;;;;0.10;0.10;;;;;;;;;;4955226;29;20688;-90
2022/11/02 11:11:24;;;;;;;0.20;0.20;;;;;;;;;;4972151;28;20438;-92
2022/11/02 11:14:02;;;;;;;0.00;0.00;;;;;;;;;;4970382;28;20425;-91
2022/11/02 11:16:32;;;;;;;0.00;0.00;;;;;;;;;;4956743;28;20460;-87
2022/11/02 11:18:58;;;;;;;0.00;0.00;;;;;;;;;;4971835;28;20414;-91
2022/11/02 11:21:35;;;;;;;4.70;0.90;;;;;;;;;;4953491;29;20424;-91
2022/11/02 11:24:11;;;;;;;0.10;0.10;;;;;;;;;;4954653;29;20414;-85
2022/11/02 11:26:37;;;;;;;0.00;0.00;;;;;;;;;;4953100;28;20437;-88
2022/11/02 11:29:20;;;;;;;0.10;0.10;;;;;;;;;;4953402;29;20420;-88
2022/11/02 11:31:46;;;;;;;0.10;0.10;;;;;;;;;;4953028;28;20433;-90
2022/11/02 11:34:22;;;;;;;0.17;0.17;;;;;;;;;;4953933;29;20410;-88
2022/11/02 11:36:48;;;;;;;0.43;0.35;;;;;;;;;;4952849;28;20420;-88
2022/11/02 11:39:26;;;;;;;0.10;0.10;;;;;;;;;;4953544;28;20418;-91
2022/11/02 11:41:52;;;;;;;0.13;0.13;;;;;;;;;;4953768;28;20402;-88
2022/11/02 11:44:19;;;;;;;2.30;2.20;;;;;;;;;;4968950;28;20418;-88
2022/11/02 11:46:49;;;;;;;0.10;0.10;;;;;;;;;;4952454;29;21061;-87
2022/11/02 11:49:26;;;;;;;0.10;0.10;;;;;;;;;;4952594;29;20481;-87
2022/11/02 11:51:54;;;;;;;0.10;0.10;;;;;;;;;;4968310;28;20469;-83
2022/11/02 11:54:32;;;;;;;0.10;0.10;;;;;;;;;;4968018;28;20496;-82
2022/11/02 11:57:19;;;;;;;0.10;0.10;;;;;;;;;;4952464;28;20422;-86
2022/11/02 11:59:47;;;;;;;43.40;39.50;;;;;;;;;;4953825;29;20414;-85
2022/11/02 12:02:23;;;;;;;0.10;0.10;;;;;;;;;;4970152;28;20431;-86
2022/11/02 12:04:50;;;;;;;2.60;2.50;;;;;;;;;;4954459;28;20442;-90
2022/11/02 12:07:19;;;;;;;53.00;48.40;;;;;;;;;;4968587;28;20418;-87
2022/11/02 12:10:09;;;;;;;523.85;479.13;;;;;;;;;;4969892;28;20769;-91
2022/11/02 12:12:53;;;;;;;709.88;643.55;;;;;;;;;;4953849;29;20484;-90
2022/11/02 12:15:31;;;;;;;678.40;614.80;;;;;;;;;;4969690;28;20478;-86
2022/11/02 12:18:17;;;;;;;671.03;607.88;;;;;;;;;;4954926;28;25155;-83
2022/11/02 12:20:59;;;;;;;0.20;0.20;;;;;;;;;;4952522;29;20448;-89
2022/11/02 12:23:25;;;;;;;716.78;650.50;;;;;;;;;;4952897;29;20473;-82
2022/11/02 12:25:57;;;;;;;532.38;482.70;;;;;;;;;;4969360;28;20426;-89
2022/11/02 12:28:39;;;;;;;708.60;642.88;;;;;;;;;;4969905;28;20859;-90
2022/11/02 12:31:11;;;;;;;569.45;516.75;;;;;;;;;;4969331;28;20434;-92
2022/11/02 12:33:41;;;;;;;705.60;640.10;;;;;;;;;;4968946;28;20476;-84
2022/11/02 12:36:07;;;;;;;0.10;0.10;;;;;;;;;;4969274;28;20418;-86
2022/11/02 12:38:39;;;;;;;500.43;455.13;;;;;;;;;;4953229;29;20448;-87
2022/11/02 12:41:37;;;;;;;0.10;0.10;;;;;;;;;;4969692;28;20909;-88
2022/11/02 12:44:09;;;;;;;0.10;0.10;;;;;;;;;;4962302;28;20460;-88
2022/11/02 12:46:45;;;;;;;1.10;0.60;;;;;;;;;;4952520;28;20420;-88
2022/11/02 12:49:11;;;;;;;0.10;0.10;;;;;;;;;;4953235;29;20820;-88
2022/11/02 12:51:49;;;;;;;622.58;569.33;;;;;;;;;;4954068;29;20516;-87
2022/11/02 12:54:27;;;;;;;571.08;523.67;;;;;;;;;;4969099;28;25094;-89
2022/11/02 12:56:54;;;;;;;700.17;638.57;;;;;;;;;;4968789;28;20838;-88
2022/11/02 12:59:20;;;;;;;675.53;619.70;;;;;;;;;;4969035;28;20414;-89
2022/11/02 13:01:49;;;;;;;717.78;655.67;;;;;;;;;;4953289;28;20510;-88
2022/11/02 13:04:23;;;;;;;731.50;668.83;;;;;;;;;;4954315;28;20406;-87
2022/11/02 13:06:56;;;;;;;731.13;668.97;;;;;;;;;;4968799;28;20461;-86
2022/11/02 13:09:36;;;;;;;676.50;617.30;;;;;;;;;;4953419;28;20784;-90
2022/11/02 13:12:11;;;;;;;714.05;651.65;;;;;;;;;;4968622;28;20437;-89
2022/11/02 13:14:47;;;;;;;0.32;0.32;;;;;;;;;;4969027;28;20402;-89
2022/11/02 13:17:25;;;;;;;715.55;655.33;;;;;;;;;;4968953;28;20424;-89
2022/11/02 13:19:54;;;;;;;595.50;547.40;;;;;;;;;;4953801;28;20414;-86
2022/11/02 13:22:23;;;;;;;708.30;650.40;;;;;;;;;;4968324;28;20426;-85
2022/11/02 13:24:52;;;;;;;466.27;427.88;;;;;;;;;;4968593;28;20414;-89
2022/11/02 13:27:39;;;;;;;617.42;569.33;;;;;;;;;;4968797;28;20418;-89
2022/11/02 13:30:13;;;;;;;713.72;656.00;;;;;;;;;;4968667;28;20420;-90
2022/11/02 13:32:54;;;;;;;526.73;485.37;;;;;;;;;;4968603;28;20797;-90
2022/11/02 13:35:23;;;;;;;697.50;644.17;;;;;;;;;;4953913;28;20418;-90
2022/11/02 13:37:52;;;;;;;231.18;212.95;;;;;;;;;;4968276;28;20406;-89
2022/11/02 13:40:19;;;;;;;636.28;588.35;;;;;;;;;;4953761;28;20456;-89
2022/11/02 13:43:03;;;;;;;0.10;0.10;;;;;;;;;;4968852;28;20437;-89
2022/11/02 13:45:35;;;;;;;120.28;110.75;;;;;;;;;;4968695;28;20420;-88
2022/11/02 13:48:07;;;;;;;513.17;473.73;;;;;;;;;;4952884;28;20418;-88
2022/11/02 13:50:34;;;;;;;300.08;277.88;;;;;;;;;;4968775;28;20456;-89
2022/11/02 13:53:03;;;;;;;652.53;603.95;;;;;;;;;;4952938;28;20429;-88
2022/11/02 13:55:41;;;;;;;678.80;627.03;;;;;;;;;;4954648;28;20438;-88
2022/11/02 13:58:13;;;;;;;617.83;571.35;;;;;;;;;;4968170;28;20418;-89
2022/11/02 14:00:48;;;;;;;223.65;207.68;;;;;;;;;;4969378;28;20429;-90
2022/11/02 14:03:17;;;;;;;680.35;628.65;;;;;;;;;;4954687;28;20390;-87
2022/11/02 14:05:48;;;;;;;555.53;513.85;;;;;;;;;;4954721;28;20436;-89
2022/11/02 14:08:20;;;;;;;98.97;92.45;;;;;;;;;;4969061;28;20422;-89
2022/11/02 14:11:01;;;;;;;684.67;633.97;;;;;;;;;;4969561;28;20410;-91
2022/11/02 14:13:45;;;;;;;677.05;626.67;;;;;;;;;;4954557;28;20885;-88
2022/11/02 14:16:11;;;;;;;31.27;29.10;;;;;;;;;;4968764;28;20424;-90
2022/11/02 14:18:37;;;;;;;0.03;0.03;;;;;;;;;;4968954;28;20418;-88
2022/11/02 14:21:23;;;;;;;0.00;0.00;;;;;;;;;;4954374;28;20414;-90
2022/11/02 14:23:49;;;;;;;0.30;0.30;;;;;;;;;;4971029;28;20588;-83
2022/11/02 14:26:32;;;;;;;0.10;0.10;;;;;;;;;;4956036;29;20417;-89
2022/11/02 14:28:58;;;;;;;0.10;0.10;;;;;;;;;;4971570;28;20417;-90
2022/11/02 14:31:39;;;;;;;0.00;0.00;;;;;;;;;;4955366;29;20968;-89
2022/11/02 14:34:19;;;;;;;663.13;614.72;;;;;;;;;;4955643;29;20422;-90
2022/11/02 14:36:57;;;;;;;649.92;602.78;;;;;;;;;;4956230;28;20500;-90
2022/11/02 14:39:23;;;;;;;428.15;395.77;;;;;;;;;;4971222;28;20425;-89
2022/11/02 14:42:00;;;;;;;454.77;421.85;;;;;;;;;;4956436;28;20402;-85
2022/11/02 14:44:38;;;;;;;681.90;631.40;;;;;;;;;;4971548;28;20426;-88
2022/11/02 14:47:13;;;;;;;672.45;621.75;;;;;;;;;;4970728;28;20422;-89
2022/11/02 14:49:46;;;;;;;673.78;623.40;;;;;;;;;;4971040;28;20461;-90
2022/11/02 14:52:15;;;;;;;688.50;635.15;;;;;;;;;;4971269;28;20433;-89
2022/11/02 14:54:53;;;;;;;575.85;534.95;;;;;;;;;;4971308;28;20415;-90
2022/11/02 14:57:23;;;;;;;638.15;591.75;;;;;;;;;;4971131;28;20418;-90
2022/11/02 14:59:51;;;;;;;533.55;496.48;;;;;;;;;;4970943;28;20435;-89
2022/11/02 15:02:28;;;;;;;642.22;594.78;;;;;;;;;;4956811;28;20406;-90